sensor_id;sensor_type;location;lat;lon;timestamp;temperature;humidity
63802;DHT22;49949;43.060;25.624;2023-07-09T00:02:20;18.10;99.90
63802;DHT22;49949;43.060;25.624;2023-07-09T00:04:46;18.10;99.90
63802;DHT22;49949;43.060;25.624;2023-07-09T00:07:32;18.10;99.90
63802;DHT22;49949;43.060;25.624;2023-07-09T00:09:59;18.10;99.90
63802;DHT22;49949;43.060;25.624;2023-07-09T00:12:25;18.10;99.90
63802;DHT22;49949;43.060;25.624;2023-07-09T00:14:51;18.10;99.90
63802;DHT22;49949;43.060;25.624;2023-07-09T00:17:31;18.00;99.90
63802;DHT22;49949;43.060;25.624;2023-07-09T00:19:59;18.00;99.90
63802;DHT22;49949;43.060;25.624;2023-07-09T00:22:25;17.90;99.90
63802;DHT22;49949;43.060;25.624;2023-07-09T00:24:52;17.90;99.90
63802;DHT22;49949;43.060;25.624;2023-07-09T00:27:25;17.80;99.90
63802;DHT22;49949;43.060;25.624;2023-07-09T00:29:53;17.80;99.90
63802;DHT22;49949;43.060;25.624;2023-07-09T00:32:20;17.80;99.90
63802;DHT22;49949;43.060;25.624;2023-07-09T00:34:47;17.80;99.90
63802;DHT22;49949;43.060;25.624;2023-07-09T00:37:20;17.70;99.90
63802;DHT22;49949;43.060;25.624;2023-07-09T00:39:47;17.70;99.90
63802;DHT22;49949;43.060;25.624;2023-07-09T00:42:15;17.70;99.90
63802;DHT22;49949;43.060;25.624;2023-07-09T00:44:43;17.70;99.90
63802;DHT22;49949;43.060;25.624;2023-07-09T00:50:42;17.70;99.90
63802;DHT22;49949;43.060;25.624;2023-07-09T00:53:20;17.70;99.90
63802;DHT22;49949;43.060;25.624;2023-07-09T00:56:01;17.70;99.90
63802;DHT22;49949;43.060;25.624;2023-07-09T00:58:29;17.70;99.90
63802;DHT22;49949;43.060;25.624;2023-07-09T01:01:00;17.80;99.90
63802;DHT22;49949;43.060;25.624;2023-07-09T01:06:05;17.70;99.90
63802;DHT22;49949;43.060;25.624;2023-07-09T01:08:32;17.70;99.90
63802;DHT22;49949;43.060;25.624;2023-07-09T01:10:59;17.60;99.90
63802;DHT22;49949;43.060;25.624;2023-07-09T01:13:26;17.70;99.90
63802;DHT22;49949;43.060;25.624;2023-07-09T01:15:52;17.70;99.90
63802;DHT22;49949;43.060;25.624;2023-07-09T01:18:19;17.70;99.90
63802;DHT22;49949;43.060;25.624;2023-07-09T01:20:44;17.70;99.90
63802;DHT22;49949;43.060;25.624;2023-07-09T01:23:12;17.80;99.90
63802;DHT22;49949;43.060;25.624;2023-07-09T01:25:45;17.70;99.90
63802;DHT22;49949;43.060;25.624;2023-07-09T01:28:12;17.70;99.90
63802;DHT22;49949;43.060;25.624;2023-07-09T01:30:40;17.70;99.90
63802;DHT22;49949;43.060;25.624;2023-07-09T01:33:06;17.70;99.90
63802;DHT22;49949;43.060;25.624;2023-07-09T01:35:36;17.70;99.90
63802;DHT22;49949;43.060;25.624;2023-07-09T01:38:02;17.60;99.90
63802;DHT22;49949;43.060;25.624;2023-07-09T01:40:32;17.50;99.90
63802;DHT22;49949;43.060;25.624;2023-07-09T01:42:58;17.50;99.90
63802;DHT22;49949;43.060;25.624;2023-07-09T01:45:24;17.50;99.90
63802;DHT22;49949;43.060;25.624;2023-07-09T01:47:51;17.40;99.90
63802;DHT22;49949;43.060;25.624;2023-07-09T01:50:19;17.20;99.90
63802;DHT22;49949;43.060;25.624;2023-07-09T01:52:46;17.10;99.90
63802;DHT22;49949;43.060;25.624;2023-07-09T01:55:13;17.00;99.90
63802;DHT22;49949;43.060;25.624;2023-07-09T01:57:42;17.00;99.90
63802;DHT22;49949;43.060;25.624;2023-07-09T02:00:13;16.90;99.90
63802;DHT22;49949;43.060;25.624;2023-07-09T02:02:40;16.80;99.90
63802;DHT22;49949;43.060;25.624;2023-07-09T02:05:10;16.70;99.90
63802;DHT22;49949;43.060;25.624;2023-07-09T02:07:36;16.70;99.90
63802;DHT22;49949;43.060;25.624;2023-07-09T02:10:04;16.70;99.90
63802;DHT22;49949;43.060;25.624;2023-07-09T02:12:29;16.70;99.90
63802;DHT22;49949;43.060;25.624;2023-07-09T02:14:55;16.60;99.90
63802;DHT22;49949;43.060;25.624;2023-07-09T02:17:21;16.60;99.90
63802;DHT22;49949;43.060;25.624;2023-07-09T02:19:46;16.60;99.90
63802;DHT22;49949;43.060;25.624;2023-07-09T02:22:12;16.70;99.90
63802;DHT22;49949;43.060;25.624;2023-07-09T02:24:38;16.70;99.90
63802;DHT22;49949;43.060;25.624;2023-07-09T02:27:06;16.70;99.90
63802;DHT22;49949;43.060;25.624;2023-07-09T02:29:33;16.70;99.90
63802;DHT22;49949;43.060;25.624;2023-07-09T02:32:00;16.80;99.90
63802;DHT22;49949;43.060;25.624;2023-07-09T02:34:26;16.70;99.90
63802;DHT22;49949;43.060;25.624;2023-07-09T02:36:53;16.70;99.90
63802;DHT22;49949;43.060;25.624;2023-07-09T02:39:19;16.60;99.90
63802;DHT22;49949;43.060;25.624;2023-07-09T02:41:45;16.60;99.90
63802;DHT22;49949;43.060;25.624;2023-07-09T02:44:11;16.60;99.90
63802;DHT22;49949;43.060;25.624;2023-07-09T02:46:37;16.50;99.90
63802;DHT22;49949;43.060;25.624;2023-07-09T02:49:06;16.50;99.90
63802;DHT22;49949;43.060;25.624;2023-07-09T02:51:33;16.40;99.90
63802;DHT22;49949;43.060;25.624;2023-07-09T02:54:00;16.40;99.90
63802;DHT22;49949;43.060;25.624;2023-07-09T02:56:27;16.50;99.90
63802;DHT22;49949;43.060;25.624;2023-07-09T02:58:53;16.50;99.90
63802;DHT22;49949;43.060;25.624;2023-07-09T03:01:19;16.60;99.90
63802;DHT22;49949;43.060;25.624;2023-07-09T03:03:54;16.60;99.90
63802;DHT22;49949;43.060;25.624;2023-07-09T03:06:21;16.60;99.90
63802;DHT22;49949;43.060;25.624;2023-07-09T03:08:47;16.60;99.90
63802;DHT22;49949;43.060;25.624;2023-07-09T03:11:14;16.40;99.90
63802;DHT22;49949;43.060;25.624;2023-07-09T03:13:40;16.40;99.90
63802;DHT22;49949;43.060;25.624;2023-07-09T03:16:06;16.40;99.90
63802;DHT22;49949;43.060;25.624;2023-07-09T03:18:32;16.40;99.90
63802;DHT22;49949;43.060;25.624;2023-07-09T03:20:58;16.40;99.90
63802;DHT22;49949;43.060;25.624;2023-07-09T03:23:24;16.40;99.90
63802;DHT22;49949;43.060;25.624;2023-07-09T03:25:50;16.40;99.90
63802;DHT22;49949;43.060;25.624;2023-07-09T03:28:16;16.40;99.90
63802;DHT22;49949;43.060;25.624;2023-07-09T03:30:46;16.50;99.90
63802;DHT22;49949;43.060;25.624;2023-07-09T03:33:13;16.60;99.90
63802;DHT22;49949;43.060;25.624;2023-07-09T03:35:40;16.50;99.90
63802;DHT22;49949;43.060;25.624;2023-07-09T03:38:07;16.50;99.90
63802;DHT22;49949;43.060;25.624;2023-07-09T03:40:33;16.60;99.90
63802;DHT22;49949;43.060;25.624;2023-07-09T03:42:59;16.70;99.90
63802;DHT22;49949;43.060;25.624;2023-07-09T03:45:25;16.70;99.90
63802;DHT22;49949;43.060;25.624;2023-07-09T03:47:51;16.60;99.90
63802;DHT22;49949;43.060;25.624;2023-07-09T03:50:17;16.60;99.90
63802;DHT22;49949;43.060;25.624;2023-07-09T03:52:43;16.50;99.90
63802;DHT22;49949;43.060;25.624;2023-07-09T03:55:09;16.60;99.90
63802;DHT22;49949;43.060;25.624;2023-07-09T03:57:35;16.50;99.90
63802;DHT22;49949;43.060;25.624;2023-07-09T04:00:02;16.40;99.90
63802;DHT22;49949;43.060;25.624;2023-07-09T04:02:29;16.40;99.90
63802;DHT22;49949;43.060;25.624;2023-07-09T04:04:54;16.60;99.90
63802;DHT22;49949;43.060;25.624;2023-07-09T04:07:20;16.50;99.90
63802;DHT22;49949;43.060;25.624;2023-07-09T04:09:46;16.50;99.90
63802;DHT22;49949;43.060;25.624;2023-07-09T04:12:11;16.60;99.90
63802;DHT22;49949;43.060;25.624;2023-07-09T04:14:37;16.70;99.90
63802;DHT22;49949;43.060;25.624;2023-07-09T04:17:03;16.50;99.90
63802;DHT22;49949;43.060;25.624;2023-07-09T04:19:29;16.60;99.90
63802;DHT22;49949;43.060;25.624;2023-07-09T04:21:55;16.60;99.90
63802;DHT22;49949;43.060;25.624;2023-07-09T04:24:21;16.60;99.90
63802;DHT22;49949;43.060;25.624;2023-07-09T04:26:47;16.60;99.90
63802;DHT22;49949;43.060;25.624;2023-07-09T04:29:13;16.70;99.90
63802;DHT22;49949;43.060;25.624;2023-07-09T04:31:40;16.70;99.90
63802;DHT22;49949;43.060;25.624;2023-07-09T04:34:06;16.80;99.90
63802;DHT22;49949;43.060;25.624;2023-07-09T04:36:32;16.90;99.90
63802;DHT22;49949;43.060;25.624;2023-07-09T04:38:58;16.80;99.90
63802;DHT22;49949;43.060;25.624;2023-07-09T04:41:24;16.80;99.90
63802;DHT22;49949;43.060;25.624;2023-07-09T04:43:50;16.90;99.90
63802;DHT22;49949;43.060;25.624;2023-07-09T04:46:16;16.90;99.90
63802;DHT22;49949;43.060;25.624;2023-07-09T04:48:42;17.00;99.90
63802;DHT22;49949;43.060;25.624;2023-07-09T04:51:07;17.10;99.90
63802;DHT22;49949;43.060;25.624;2023-07-09T04:53:34;17.20;99.90
63802;DHT22;49949;43.060;25.624;2023-07-09T04:56:00;17.20;99.90
63802;DHT22;49949;43.060;25.624;2023-07-09T04:58:28;17.20;99.90
63802;DHT22;49949;43.060;25.624;2023-07-09T05:00:57;17.30;99.90
63802;DHT22;49949;43.060;25.624;2023-07-09T05:03:23;17.40;99.90
63802;DHT22;49949;43.060;25.624;2023-07-09T05:05:48;17.40;99.90
63802;DHT22;49949;43.060;25.624;2023-07-09T05:08:14;17.40;99.90
63802;DHT22;49949;43.060;25.624;2023-07-09T05:10:44;17.60;99.90
63802;DHT22;49949;43.060;25.624;2023-07-09T05:13:10;17.60;99.90
63802;DHT22;49949;43.060;25.624;2023-07-09T05:15:39;17.70;99.90
63802;DHT22;49949;43.060;25.624;2023-07-09T05:18:05;17.70;99.90
63802;DHT22;49949;43.060;25.624;2023-07-09T05:20:30;18.00;99.90
63802;DHT22;49949;43.060;25.624;2023-07-09T05:22:56;18.00;99.90
63802;DHT22;49949;43.060;25.624;2023-07-09T05:25:22;18.20;99.90
63802;DHT22;49949;43.060;25.624;2023-07-09T05:27:47;18.40;99.90
63802;DHT22;49949;43.060;25.624;2023-07-09T05:30:13;18.50;99.90
63802;DHT22;49949;43.060;25.624;2023-07-09T05:32:39;18.70;99.90
63802;DHT22;49949;43.060;25.624;2023-07-09T05:35:05;18.90;99.90
63802;DHT22;49949;43.060;25.624;2023-07-09T05:37:31;19.20;99.90
63802;DHT22;49949;43.060;25.624;2023-07-09T05:39:57;19.60;99.90
63802;DHT22;49949;43.060;25.624;2023-07-09T05:42:22;20.00;99.90
63802;DHT22;49949;43.060;25.624;2023-07-09T05:44:48;20.40;99.90
63802;DHT22;49949;43.060;25.624;2023-07-09T05:47:15;20.80;99.90
63802;DHT22;49949;43.060;25.624;2023-07-09T05:49:41;21.20;99.90
63802;DHT22;49949;43.060;25.624;2023-07-09T05:52:06;21.50;99.90
63802;DHT22;49949;43.060;25.624;2023-07-09T05:54:33;21.80;99.90
63802;DHT22;49949;43.060;25.624;2023-07-09T05:56:59;22.10;99.90
63802;DHT22;49949;43.060;25.624;2023-07-09T05:59:24;22.40;99.90
63802;DHT22;49949;43.060;25.624;2023-07-09T06:01:50;22.80;99.90
63802;DHT22;49949;43.060;25.624;2023-07-09T06:04:16;22.90;99.90
63802;DHT22;49949;43.060;25.624;2023-07-09T06:06:42;23.00;99.90
63802;DHT22;49949;43.060;25.624;2023-07-09T06:09:10;23.20;99.90
63802;DHT22;49949;43.060;25.624;2023-07-09T06:11:36;23.40;99.90
63802;DHT22;49949;43.060;25.624;2023-07-09T06:14:01;23.70;99.90
63802;DHT22;49949;43.060;25.624;2023-07-09T06:16:27;23.80;99.90
63802;DHT22;49949;43.060;25.624;2023-07-09T06:18:53;24.00;99.90
63802;DHT22;49949;43.060;25.624;2023-07-09T06:21:19;24.20;99.90
63802;DHT22;49949;43.060;25.624;2023-07-09T06:23:45;24.50;99.90
63802;DHT22;49949;43.060;25.624;2023-07-09T06:26:11;24.70;99.90
63802;DHT22;49949;43.060;25.624;2023-07-09T06:28:37;24.90;99.90
63802;DHT22;49949;43.060;25.624;2023-07-09T06:31:03;25.00;99.90
63802;DHT22;49949;43.060;25.624;2023-07-09T06:33:30;25.20;99.90
63802;DHT22;49949;43.060;25.624;2023-07-09T06:35:57;25.40;99.90
63802;DHT22;49949;43.060;25.624;2023-07-09T06:38:24;25.60;99.90
63802;DHT22;49949;43.060;25.624;2023-07-09T06:40:50;25.70;99.90
63802;DHT22;49949;43.060;25.624;2023-07-09T06:43:16;25.80;99.90
63802;DHT22;49949;43.060;25.624;2023-07-09T06:46:12;25.80;99.90
63802;DHT22;49949;43.060;25.624;2023-07-09T06:48:39;25.90;99.90
63802;DHT22;49949;43.060;25.624;2023-07-09T06:51:04;25.90;99.90
63802;DHT22;49949;43.060;25.624;2023-07-09T06:53:30;25.90;99.90
63802;DHT22;49949;43.060;25.624;2023-07-09T06:55:56;25.90;99.90
63802;DHT22;49949;43.060;25.624;2023-07-09T06:58:26;26.00;99.90
63802;DHT22;49949;43.060;25.624;2023-07-09T07:00:54;26.10;99.90
63802;DHT22;49949;43.060;25.624;2023-07-09T07:03:21;26.20;99.90
63802;DHT22;49949;43.060;25.624;2023-07-09T07:05:49;26.20;99.90
63802;DHT22;49949;43.060;25.624;2023-07-09T07:08:18;26.20;99.90
63802;DHT22;49949;43.060;25.624;2023-07-09T07:10:47;26.10;99.90
63802;DHT22;49949;43.060;25.624;2023-07-09T07:13:12;26.10;99.90
63802;DHT22;49949;43.060;25.624;2023-07-09T07:15:39;26.20;99.90
63802;DHT22;49949;43.060;25.624;2023-07-09T07:18:06;26.20;99.90
63802;DHT22;49949;43.060;25.624;2023-07-09T07:20:32;26.30;99.90
63802;DHT22;49949;43.060;25.624;2023-07-09T07:22:58;26.30;99.90
63802;DHT22;49949;43.060;25.624;2023-07-09T07:25:24;26.30;99.90
63802;DHT22;49949;43.060;25.624;2023-07-09T07:27:50;26.20;99.90
63802;DHT22;49949;43.060;25.624;2023-07-09T07:30:16;26.00;99.90
63802;DHT22;49949;43.060;25.624;2023-07-09T07:32:44;26.00;99.90
63802;DHT22;49949;43.060;25.624;2023-07-09T07:35:10;26.10;99.90
63802;DHT22;49949;43.060;25.624;2023-07-09T07:37:36;26.00;99.90
63802;DHT22;49949;43.060;25.624;2023-07-09T07:40:02;26.00;99.90
63802;DHT22;49949;43.060;25.624;2023-07-09T07:42:31;26.10;99.90
63802;DHT22;49949;43.060;25.624;2023-07-09T07:44:57;26.20;99.90
63802;DHT22;49949;43.060;25.624;2023-07-09T07:47:22;26.40;99.90
63802;DHT22;49949;43.060;25.624;2023-07-09T07:49:48;26.80;99.90
63802;DHT22;49949;43.060;25.624;2023-07-09T07:52:14;27.00;99.90
63802;DHT22;49949;43.060;25.624;2023-07-09T07:54:40;27.00;98.10
63802;DHT22;49949;43.060;25.624;2023-07-09T07:57:05;27.00;96.90
63802;DHT22;49949;43.060;25.624;2023-07-09T07:59:31;27.10;95.10
63802;DHT22;49949;43.060;25.624;2023-07-09T08:02:00;27.20;96.70
63802;DHT22;49949;43.060;25.624;2023-07-09T08:04:26;27.30;95.10
63802;DHT22;49949;43.060;25.624;2023-07-09T08:06:52;27.50;93.90
63802;DHT22;49949;43.060;25.624;2023-07-09T08:09:18;27.70;89.90
63802;DHT22;49949;43.060;25.624;2023-07-09T08:11:44;28.00;89.00
63802;DHT22;49949;43.060;25.624;2023-07-09T08:14:11;28.00;90.50
63802;DHT22;49949;43.060;25.624;2023-07-09T08:16:36;28.00;87.30
63802;DHT22;49949;43.060;25.624;2023-07-09T08:19:02;28.00;89.20
63802;DHT22;49949;43.060;25.624;2023-07-09T08:21:28;27.80;79.80
63802;DHT22;49949;43.060;25.624;2023-07-09T08:23:54;27.80;82.70
63802;DHT22;49949;43.060;25.624;2023-07-09T08:26:20;27.80;78.40
63802;DHT22;49949;43.060;25.624;2023-07-09T08:28:45;27.90;82.80
63802;DHT22;49949;43.060;25.624;2023-07-09T08:31:11;28.00;79.50
63802;DHT22;49949;43.060;25.624;2023-07-09T08:33:37;28.10;83.70
63802;DHT22;49949;43.060;25.624;2023-07-09T08:36:03;28.10;78.60
63802;DHT22;49949;43.060;25.624;2023-07-09T08:38:29;28.10;77.80
63802;DHT22;49949;43.060;25.624;2023-07-09T08:43:53;28.50;79.70
63802;DHT22;49949;43.060;25.624;2023-07-09T08:46:29;28.50;81.10
63802;DHT22;49949;43.060;25.624;2023-07-09T08:48:59;28.60;77.90
63802;DHT22;49949;43.060;25.624;2023-07-09T08:51:38;28.80;79.00
63802;DHT22;49949;43.060;25.624;2023-07-09T08:54:31;28.50;74.40
63802;DHT22;49949;43.060;25.624;2023-07-09T08:57:14;28.10;75.80
63802;DHT22;49949;43.060;25.624;2023-07-09T08:59:41;28.10;80.50
63802;DHT22;49949;43.060;25.624;2023-07-09T09:02:17;28.10;77.30
63802;DHT22;49949;43.060;25.624;2023-07-09T09:04:48;28.30;74.70
63802;DHT22;49949;43.060;25.624;2023-07-09T09:07:23;28.50;78.00
63802;DHT22;49949;43.060;25.624;2023-07-09T09:09:58;28.30;73.90
63802;DHT22;49949;43.060;25.624;2023-07-09T09:12:37;28.50;77.60
63802;DHT22;49949;43.060;25.624;2023-07-09T09:15:14;28.40;73.00
63802;DHT22;49949;43.060;25.624;2023-07-09T09:17:40;28.40;74.20
63802;DHT22;49949;43.060;25.624;2023-07-09T09:20:17;28.40;74.80
63802;DHT22;49949;43.060;25.624;2023-07-09T09:25:31;28.20;74.80
63802;DHT22;49949;43.060;25.624;2023-07-09T09:28:01;28.40;79.00
63802;DHT22;49949;43.060;25.624;2023-07-09T09:30:27;28.80;78.30
63802;DHT22;49949;43.060;25.624;2023-07-09T09:32:59;29.00;76.70
63802;DHT22;49949;43.060;25.624;2023-07-09T09:35:36;29.20;76.20
63802;DHT22;49949;43.060;25.624;2023-07-09T09:38:13;29.40;76.20
63802;DHT22;49949;43.060;25.624;2023-07-09T09:40:40;28.90;74.60
63802;DHT22;49949;43.060;25.624;2023-07-09T09:43:18;28.50;74.50
63802;DHT22;49949;43.060;25.624;2023-07-09T09:45:46;28.00;76.20
63802;DHT22;49949;43.060;25.624;2023-07-09T09:48:17;28.40;78.20
63802;DHT22;49949;43.060;25.624;2023-07-09T09:50:45;28.80;78.60
63802;DHT22;49949;43.060;25.624;2023-07-09T09:53:19;29.20;79.50
63802;DHT22;49949;43.060;25.624;2023-07-09T09:55:47;29.10;79.50
63802;DHT22;49949;43.060;25.624;2023-07-09T09:58:15;29.40;76.90
63802;DHT22;49949;43.060;25.624;2023-07-09T10:00:48;29.20;77.60
63802;DHT22;49949;43.060;25.624;2023-07-09T10:03:13;29.00;76.70
63802;DHT22;49949;43.060;25.624;2023-07-09T10:05:48;28.90;74.80
63802;DHT22;49949;43.060;25.624;2023-07-09T10:10:47;29.40;78.10
63802;DHT22;49949;43.060;25.624;2023-07-09T10:13:34;29.40;75.20
63802;DHT22;49949;43.060;25.624;2023-07-09T10:16:08;29.10;75.30
63802;DHT22;49949;43.060;25.624;2023-07-09T10:21:31;29.20;76.20
63802;DHT22;49949;43.060;25.624;2023-07-09T10:26:51;29.40;72.00
63802;DHT22;49949;43.060;25.624;2023-07-09T10:29:44;29.50;75.50
63802;DHT22;49949;43.060;25.624;2023-07-09T10:34:57;29.50;75.30
63802;DHT22;49949;43.060;25.624;2023-07-09T10:39:57;29.70;69.50
63802;DHT22;49949;43.060;25.624;2023-07-09T10:42:34;29.40;70.70
63802;DHT22;49949;43.060;25.624;2023-07-09T10:45:10;29.70;72.70
63802;DHT22;49949;43.060;25.624;2023-07-09T10:47:44;29.70;73.30
63802;DHT22;49949;43.060;25.624;2023-07-09T10:50:39;29.50;71.40
63802;DHT22;49949;43.060;25.624;2023-07-09T10:53:37;29.50;70.80
63802;DHT22;49949;43.060;25.624;2023-07-09T10:56:20;29.50;71.10
63802;DHT22;49949;43.060;25.624;2023-07-09T10:59:07;29.40;72.20
63802;DHT22;49949;43.060;25.624;2023-07-09T11:01:42;29.50;73.50
63802;DHT22;49949;43.060;25.624;2023-07-09T11:06:57;29.50;70.10
63802;DHT22;49949;43.060;25.624;2023-07-09T11:09:35;29.50;69.10
63802;DHT22;49949;43.060;25.624;2023-07-09T11:12:17;29.20;71.10
63802;DHT22;49949;43.060;25.624;2023-07-09T11:14:52;29.20;70.10
63802;DHT22;49949;43.060;25.624;2023-07-09T11:17:20;29.10;71.40
63802;DHT22;49949;43.060;25.624;2023-07-09T11:19:54;28.90;72.30
63802;DHT22;49949;43.060;25.624;2023-07-09T11:22:23;28.70;70.20
63802;DHT22;49949;43.060;25.624;2023-07-09T11:24:52;28.80;72.10
63802;DHT22;49949;43.060;25.624;2023-07-09T11:27:19;28.90;73.40
63802;DHT22;49949;43.060;25.624;2023-07-09T11:29:47;29.10;65.30
63802;DHT22;49949;43.060;25.624;2023-07-09T11:32:21;29.30;66.60
63802;DHT22;49949;43.060;25.624;2023-07-09T11:34:47;29.70;68.20
63802;DHT22;49949;43.060;25.624;2023-07-09T11:37:14;29.70;65.70
63802;DHT22;49949;43.060;25.624;2023-07-09T11:42:31;30.10;64.80
63802;DHT22;49949;43.060;25.624;2023-07-09T11:45:11;30.30;61.10
63802;DHT22;49949;43.060;25.624;2023-07-09T11:47:41;30.60;61.70
63802;DHT22;49949;43.060;25.624;2023-07-09T11:50:24;30.30;60.80
63802;DHT22;49949;43.060;25.624;2023-07-09T11:57:56;29.60;65.80
63802;DHT22;49949;43.060;25.624;2023-07-09T12:00:23;29.50;64.80
63802;DHT22;49949;43.060;25.624;2023-07-09T12:02:49;29.60;63.00
63802;DHT22;49949;43.060;25.624;2023-07-09T12:05:20;29.80;62.70
63802;DHT22;49949;43.060;25.624;2023-07-09T12:07:46;30.00;63.40
63802;DHT22;49949;43.060;25.624;2023-07-09T12:10:22;30.00;65.10
63802;DHT22;49949;43.060;25.624;2023-07-09T12:12:48;29.70;60.00
63802;DHT22;49949;43.060;25.624;2023-07-09T12:15:25;29.60;61.60
63802;DHT22;49949;43.060;25.624;2023-07-09T12:18:03;29.50;62.70
63802;DHT22;49949;43.060;25.624;2023-07-09T12:20:36;29.30;62.50
63802;DHT22;49949;43.060;25.624;2023-07-09T12:23:22;29.30;63.40
63802;DHT22;49949;43.060;25.624;2023-07-09T12:25:52;29.40;63.40
63802;DHT22;49949;43.060;25.624;2023-07-09T12:28:19;29.50;66.50
63802;DHT22;49949;43.060;25.624;2023-07-09T12:30:52;29.60;65.40
63802;DHT22;49949;43.060;25.624;2023-07-09T12:33:20;29.80;63.40
63802;DHT22;49949;43.060;25.624;2023-07-09T12:35:47;29.90;63.30
63802;DHT22;49949;43.060;25.624;2023-07-09T12:38:21;30.00;64.40
63802;DHT22;49949;43.060;25.624;2023-07-09T12:40:51;29.90;64.60
63802;DHT22;49949;43.060;25.624;2023-07-09T12:43:30;29.80;62.70
63802;DHT22;49949;43.060;25.624;2023-07-09T12:45:59;29.70;65.70
63802;DHT22;49949;43.060;25.624;2023-07-09T12:48:27;29.70;63.70
63802;DHT22;49949;43.060;25.624;2023-07-09T12:50:56;29.50;64.60
63802;DHT22;49949;43.060;25.624;2023-07-09T12:53:24;29.60;65.60
63802;DHT22;49949;43.060;25.624;2023-07-09T12:55:55;29.40;65.30
63802;DHT22;49949;43.060;25.624;2023-07-09T12:58:23;29.50;64.00
63802;DHT22;49949;43.060;25.624;2023-07-09T13:00:52;29.40;64.70
63802;DHT22;49949;43.060;25.624;2023-07-09T13:03:29;29.60;64.40
63802;DHT22;49949;43.060;25.624;2023-07-09T13:06:20;29.40;65.30
63802;DHT22;49949;43.060;25.624;2023-07-09T13:08:55;29.10;64.60
63802;DHT22;49949;43.060;25.624;2023-07-09T13:11:21;29.20;66.50
63802;DHT22;49949;43.060;25.624;2023-07-09T13:14:11;29.40;67.40
63802;DHT22;49949;43.060;25.624;2023-07-09T13:16:39;29.30;66.20
63802;DHT22;49949;43.060;25.624;2023-07-09T13:19:05;29.20;68.10
63802;DHT22;49949;43.060;25.624;2023-07-09T13:21:31;29.10;68.70
63802;DHT22;49949;43.060;25.624;2023-07-09T13:23:58;29.30;69.50
63802;DHT22;49949;43.060;25.624;2023-07-09T13:26:24;29.50;67.40
63802;DHT22;49949;43.060;25.624;2023-07-09T13:28:49;29.60;67.10
63802;DHT22;49949;43.060;25.624;2023-07-09T13:31:19;29.70;66.50
63802;DHT22;49949;43.060;25.624;2023-07-09T13:33:52;29.80;65.70
63802;DHT22;49949;43.060;25.624;2023-07-09T13:36:19;29.80;61.80
63802;DHT22;49949;43.060;25.624;2023-07-09T13:38:45;29.70;63.30
63802;DHT22;49949;43.060;25.624;2023-07-09T13:41:14;29.70;63.90
63802;DHT22;49949;43.060;25.624;2023-07-09T13:43:43;29.70;64.80
63802;DHT22;49949;43.060;25.624;2023-07-09T13:46:09;29.80;62.70
63802;DHT22;49949;43.060;25.624;2023-07-09T13:48:37;29.80;65.10
63802;DHT22;49949;43.060;25.624;2023-07-09T13:51:18;29.70;63.00
63802;DHT22;49949;43.060;25.624;2023-07-09T13:53:45;29.50;64.90
63802;DHT22;49949;43.060;25.624;2023-07-09T13:56:10;29.60;62.70
63802;DHT22;49949;43.060;25.624;2023-07-09T13:58:36;29.70;62.70
63802;DHT22;49949;43.060;25.624;2023-07-09T14:01:13;29.70;60.10
63802;DHT22;49949;43.060;25.624;2023-07-09T14:03:39;29.70;60.80
63802;DHT22;49949;43.060;25.624;2023-07-09T14:06:05;29.80;62.80
63802;DHT22;49949;43.060;25.624;2023-07-09T14:08:33;29.70;61.30
63802;DHT22;49949;43.060;25.624;2023-07-09T14:10:59;29.80;64.20
63802;DHT22;49949;43.060;25.624;2023-07-09T14:13:25;30.00;62.40
63802;DHT22;49949;43.060;25.624;2023-07-09T14:15:51;29.90;60.00
63802;DHT22;49949;43.060;25.624;2023-07-09T14:18:19;30.00;64.40
63802;DHT22;49949;43.060;25.624;2023-07-09T14:20:45;30.10;62.30
63802;DHT22;49949;43.060;25.624;2023-07-09T14:23:12;30.00;60.90
63802;DHT22;49949;43.060;25.624;2023-07-09T14:25:39;29.80;62.70
63802;DHT22;49949;43.060;25.624;2023-07-09T14:28:13;30.00;63.20
63802;DHT22;49949;43.060;25.624;2023-07-09T14:30:40;29.80;60.90
63802;DHT22;49949;43.060;25.624;2023-07-09T14:33:15;29.90;64.10
63802;DHT22;49949;43.060;25.624;2023-07-09T14:35:41;30.00;64.80
63802;DHT22;49949;43.060;25.624;2023-07-09T14:38:23;30.20;63.20
63802;DHT22;49949;43.060;25.624;2023-07-09T14:40:51;30.40;64.00
63802;DHT22;49949;43.060;25.624;2023-07-09T14:43:17;30.40;61.40
63802;DHT22;49949;43.060;25.624;2023-07-09T14:45:43;30.20;61.40
63802;DHT22;49949;43.060;25.624;2023-07-09T14:50:36;29.90;64.50
63802;DHT22;49949;43.060;25.624;2023-07-09T14:53:03;30.00;64.80
63802;DHT22;49949;43.060;25.624;2023-07-09T14:55:28;30.00;63.90
63802;DHT22;49949;43.060;25.624;2023-07-09T14:57:55;30.00;64.00
63802;DHT22;49949;43.060;25.624;2023-07-09T15:00:22;30.10;64.30
63802;DHT22;49949;43.060;25.624;2023-07-09T15:02:50;30.20;63.10
63802;DHT22;49949;43.060;25.624;2023-07-09T15:05:19;30.30;64.10
63802;DHT22;49949;43.060;25.624;2023-07-09T15:07:46;30.40;64.10
63802;DHT22;49949;43.060;25.624;2023-07-09T15:10:22;30.60;62.60
63802;DHT22;49949;43.060;25.624;2023-07-09T15:12:48;30.50;61.40
63802;DHT22;49949;43.060;25.624;2023-07-09T15:15:24;30.50;62.50
63802;DHT22;49949;43.060;25.624;2023-07-09T15:17:51;30.50;63.40
63802;DHT22;49949;43.060;25.624;2023-07-09T15:20:22;30.40;62.50
63802;DHT22;49949;43.060;25.624;2023-07-09T15:22:49;30.50;63.90
63802;DHT22;49949;43.060;25.624;2023-07-09T15:25:20;30.70;63.50
63802;DHT22;49949;43.060;25.624;2023-07-09T15:27:46;30.80;63.40
63802;DHT22;49949;43.060;25.624;2023-07-09T15:30:17;30.80;64.10
63802;DHT22;49949;43.060;25.624;2023-07-09T15:32:45;30.70;64.70
63802;DHT22;49949;43.060;25.624;2023-07-09T15:35:12;30.70;64.40
63802;DHT22;49949;43.060;25.624;2023-07-09T15:37:38;30.60;65.40
63802;DHT22;49949;43.060;25.624;2023-07-09T15:40:04;30.60;64.60
63802;DHT22;49949;43.060;25.624;2023-07-09T15:42:39;30.70;63.80
63802;DHT22;49949;43.060;25.624;2023-07-09T15:45:05;30.70;62.50
63802;DHT22;49949;43.060;25.624;2023-07-09T15:47:31;30.60;62.40
63802;DHT22;49949;43.060;25.624;2023-07-09T15:49:58;30.50;65.60
63802;DHT22;49949;43.060;25.624;2023-07-09T15:52:24;30.50;67.30
63802;DHT22;49949;43.060;25.624;2023-07-09T15:54:49;30.50;67.00
63802;DHT22;49949;43.060;25.624;2023-07-09T15:57:15;30.70;66.30
63802;DHT22;49949;43.060;25.624;2023-07-09T15:59:41;30.70;64.90
63802;DHT22;49949;43.060;25.624;2023-07-09T16:02:14;30.90;66.40
63802;DHT22;49949;43.060;25.624;2023-07-09T16:04:43;31.00;67.20